createdAt,value
2023-02-08T00:00:23.147Z,-2.21
2023-02-08T00:02:51.222Z,-2.17
2023-02-08T00:05:19.542Z,-2.21
2023-02-08T00:07:48.528Z,-2.19
2023-02-08T00:10:16.180Z,-2.19
2023-02-08T00:12:43.842Z,-2.25
2023-02-08T00:15:11.507Z,-2.33
2023-02-08T00:17:39.406Z,-2.38
2023-02-08T00:20:07.650Z,-2.47
2023-02-08T00:22:35.275Z,-2.62
2023-02-08T00:25:04.367Z,-2.64
2023-02-08T00:27:32.060Z,-2.52
2023-02-08T00:29:59.740Z,-2.37
2023-02-08T00:32:27.414Z,-2.30
2023-02-08T00:34:55.102Z,-2.27
2023-02-08T00:37:22.943Z,-2.31
2023-02-08T00:39:51.033Z,-2.35
2023-02-08T00:42:20.071Z,-2.45
2023-02-08T00:44:47.736Z,-2.46
2023-02-08T00:47:15.433Z,-2.44
2023-02-08T00:49:43.100Z,-2.48
2023-02-08T00:52:10.767Z,-2.57
2023-02-08T00:54:38.557Z,-2.60
2023-02-08T00:57:06.239Z,-2.65
2023-02-08T00:59:35.368Z,-2.62
2023-02-08T01:02:03.112Z,-2.62
2023-02-08T01:04:30.809Z,-2.69
2023-02-08T01:06:58.519Z,-2.67
2023-02-08T01:09:26.241Z,-2.72
2023-02-08T01:11:53.965Z,-2.78
2023-02-08T01:14:21.625Z,-2.78
2023-02-08T01:16:50.753Z,-2.76
2023-02-08T01:19:18.431Z,-2.69
2023-02-08T01:21:46.171Z,-2.66
2023-02-08T01:24:13.913Z,-2.69
2023-02-08T01:26:41.730Z,-2.78
2023-02-08T01:29:09.475Z,-2.81
2023-02-08T01:31:38.711Z,-2.85
2023-02-08T01:34:08.916Z,-2.80
2023-02-08T01:36:37.304Z,-2.78
2023-02-08T01:39:06.136Z,-2.76
2023-02-08T01:41:35.738Z,-2.73
2023-02-08T01:44:07.685Z,-2.81
2023-02-08T01:46:37.229Z,-3.00
2023-02-08T01:49:09.454Z,-2.97
2023-02-08T01:51:39.496Z,-3.04
2023-02-08T01:54:08.703Z,-3.03
2023-02-08T01:56:38.903Z,-3.05
2023-02-08T01:59:10.297Z,-3.04
2023-02-08T02:01:39.973Z,-3.03
2023-02-08T02:04:10.126Z,-3.08
2023-02-08T02:06:42.187Z,-3.08
2023-02-08T02:09:26.086Z,-3.09
2023-02-08T02:11:55.853Z,-3.14
2023-02-08T02:14:24.518Z,-3.10
2023-02-08T02:16:52.245Z,-3.11
2023-02-08T02:19:27.657Z,-3.21
2023-02-08T02:22:05.251Z,-3.23
2023-02-08T02:25:08.582Z,-3.22
2023-02-08T02:27:45.311Z,-3.24
2023-02-08T02:31:01.322Z,-3.35
2023-02-08T02:33:46.896Z,-3.34
2023-02-08T02:36:19.451Z,-3.34
2023-02-08T02:38:58.076Z,-3.35
2023-02-08T02:41:50.481Z,-3.38
2023-02-08T02:44:23.380Z,-3.42
2023-02-08T02:46:56.837Z,-3.39
2023-02-08T02:49:28.237Z,-3.41
2023-02-08T02:51:59.926Z,-3.44
2023-02-08T02:54:32.068Z,-3.44
2023-02-08T02:57:02.840Z,-3.50
2023-02-08T02:59:33.981Z,-3.56
2023-02-08T03:02:03.626Z,-3.55
2023-02-08T03:04:54.157Z,-3.54
2023-02-08T03:07:47.163Z,-3.52
2023-02-08T03:10:30.079Z,-3.48
2023-02-08T03:13:02.665Z,-3.45
2023-02-08T03:15:36.964Z,-3.46
2023-02-08T03:18:10.796Z,-3.51
2023-02-08T03:20:42.934Z,-3.53
2023-02-08T03:23:14.272Z,-3.51
2023-02-08T03:25:48.727Z,-3.50
2023-02-08T03:28:21.661Z,-3.54
2023-02-08T03:30:55.379Z,-3.59
2023-02-08T03:33:26.771Z,-3.54
2023-02-08T03:36:00.593Z,-3.54
2023-02-08T03:38:31.165Z,-3.56
2023-02-08T03:41:01.213Z,-3.64
2023-02-08T03:43:31.500Z,-3.68
2023-02-08T03:46:06.403Z,-3.73
2023-02-08T03:48:34.805Z,-3.75
2023-02-08T03:51:04.899Z,-3.76
2023-02-08T03:53:38.302Z,-3.83
2023-02-08T03:56:09.969Z,-3.81
2023-02-08T03:58:43.083Z,-3.76
2023-02-08T04:01:15.299Z,-3.73
2023-02-08T04:03:45.615Z,-3.67
2023-02-08T04:06:14.701Z,-3.63
2023-02-08T04:08:42.364Z,-3.74
2023-02-08T04:11:10.048Z,-3.83
2023-02-08T04:13:37.912Z,-3.91
2023-02-08T04:16:06.059Z,-4.00
2023-02-08T04:18:33.729Z,-4.00
2023-02-08T04:21:01.382Z,-4.03
2023-02-08T04:23:30.423Z,-4.03
2023-02-08T04:25:58.117Z,-4.01
2023-02-08T04:28:25.867Z,-4.01
2023-02-08T04:30:56.774Z,-4.02
2023-02-08T04:33:24.509Z,-4.02
2023-02-08T04:35:52.235Z,-4.05
2023-02-08T04:38:19.933Z,-4.05
2023-02-08T04:40:48.935Z,-4.04
2023-02-08T04:43:16.569Z,-3.93
2023-02-08T04:45:44.291Z,-3.88
2023-02-08T04:48:12.140Z,-3.88
2023-02-08T04:50:40.381Z,-3.95
2023-02-08T04:53:08.260Z,-3.98
2023-02-08T04:55:36.358Z,-4.00
2023-02-08T04:58:05.639Z,-4.00
2023-02-08T05:00:33.347Z,-4.00
2023-02-08T05:03:01.009Z,-4.00
2023-02-08T05:05:28.778Z,-4.01
2023-02-08T05:07:56.484Z,-4.03
2023-02-08T05:10:24.299Z,-4.05
2023-02-08T05:12:52.005Z,-4.06
2023-02-08T05:15:21.151Z,-4.05
2023-02-08T05:17:48.872Z,-4.05
2023-02-08T05:20:16.637Z,-4.09
2023-02-08T05:22:44.270Z,-4.09
2023-02-08T05:25:12.179Z,-4.05
2023-02-08T05:27:39.992Z,-4.00
2023-02-08T05:30:08.763Z,-4.03
2023-02-08T05:32:37.800Z,-4.06
2023-02-08T05:35:05.896Z,-4.00
2023-02-08T05:37:33.555Z,-3.93
2023-02-08T05:40:01.253Z,-3.91
2023-02-08T05:42:28.985Z,-3.92
2023-02-08T05:44:56.787Z,-3.89
2023-02-08T05:47:24.503Z,-3.90
2023-02-08T05:49:53.552Z,-3.89
2023-02-08T05:52:21.276Z,-3.92
2023-02-08T05:54:48.925Z,-3.90
2023-02-08T05:57:16.570Z,-3.81
2023-02-08T05:59:44.194Z,-3.77
2023-02-08T06:02:11.827Z,-3.77
2023-02-08T06:04:39.637Z,-3.66
2023-02-08T06:07:08.737Z,-3.66
2023-02-08T06:09:36.402Z,-3.59
2023-02-08T06:12:04.195Z,-3.64
2023-02-08T06:14:31.826Z,-3.60
2023-02-08T06:16:59.527Z,-3.58
2023-02-08T06:19:27.229Z,-3.49
2023-02-08T06:21:56.494Z,-3.54
2023-02-08T06:24:25.829Z,-3.50
2023-02-08T06:26:53.536Z,-3.50
2023-02-08T06:29:21.259Z,-3.48
2023-02-08T06:31:49.142Z,-3.40
2023-02-08T06:34:16.844Z,-3.41
2023-02-08T06:36:45.385Z,-3.36
2023-02-08T06:39:13.184Z,-3.34
2023-02-08T06:41:42.191Z,-3.32
2023-02-08T06:44:09.957Z,-3.32
2023-02-08T06:46:37.624Z,-3.32
2023-02-08T06:49:05.308Z,-3.36
2023-02-08T06:51:32.995Z,-3.46
2023-02-08T06:54:00.626Z,-3.54
2023-02-08T06:56:28.328Z,-3.62
2023-02-08T06:58:57.538Z,-3.59
2023-02-08T07:01:25.329Z,-3.68
2023-02-08T07:03:53.069Z,-3.74
2023-02-08T07:06:21.527Z,-3.87
2023-02-08T07:08:49.234Z,-3.92
2023-02-08T07:11:19.720Z,-3.99
2023-02-08T07:13:48.367Z,-3.99
2023-02-08T07:16:17.919Z,-3.99
2023-02-08T07:18:45.851Z,-4.01
2023-02-08T07:21:13.811Z,-4.00
2023-02-08T07:23:41.791Z,-3.99
2023-02-08T07:26:11.936Z,-3.99
2023-02-08T07:28:40.316Z,-3.86
2023-02-08T07:31:08.983Z,-3.80
2023-02-08T07:33:39.846Z,-3.74
2023-02-08T07:36:08.910Z,-3.67
2023-02-08T07:38:36.769Z,-3.55
2023-02-08T07:41:05.837Z,-3.44
2023-02-08T07:43:34.746Z,-3.38
2023-02-08T07:46:06.861Z,-3.35
2023-02-08T07:48:34.671Z,-3.27
2023-02-08T07:51:03.955Z,-3.15
2023-02-08T07:53:32.254Z,-3.10
2023-02-08T07:56:00.246Z,-3.02
2023-02-08T07:58:28.252Z,-2.96
2023-02-08T08:00:56.065Z,-2.79
2023-02-08T08:03:24.635Z,-2.67
2023-02-08T08:05:54.899Z,-2.57
2023-02-08T08:08:24.102Z,-2.44
2023-02-08T08:10:51.812Z,-2.29
2023-02-08T08:13:19.454Z,-2.25
2023-02-08T08:15:48.150Z,-2.13
2023-02-08T08:18:15.954Z,-2.02
2023-02-08T08:20:43.665Z,-1.94
2023-02-08T08:23:11.447Z,-1.82
2023-02-08T08:25:40.536Z,-1.76
2023-02-08T08:28:08.291Z,-1.63
2023-02-08T08:30:36.167Z,-1.49
2023-02-08T08:33:03.912Z,-1.34
2023-02-08T08:35:31.582Z,-1.30
2023-02-08T08:37:59.228Z,-1.10
2023-02-08T08:40:26.964Z,-1.03
2023-02-08T08:42:56.006Z,-1.05
2023-02-08T08:45:23.711Z,-0.93
2023-02-08T08:48:51.730Z,-0.81
2023-02-08T08:51:19.530Z,-0.60
2023-02-08T08:53:47.249Z,-0.45
2023-02-08T08:56:14.984Z,-0.37
2023-02-08T08:58:43.406Z,-0.31
2023-02-08T09:01:11.158Z,-0.28
2023-02-08T09:03:38.890Z,-0.24
2023-02-08T09:06:08.237Z,-0.24
2023-02-08T09:08:35.971Z,-0.30
2023-02-08T09:11:08.033Z,-0.08
2023-02-08T09:13:37.238Z,0.08
2023-02-08T09:16:09.155Z,0.09
2023-02-08T09:20:46.241Z,0.21
2023-02-08T09:23:15.097Z,0.28
2023-02-08T09:25:42.762Z,0.39
2023-02-08T09:28:10.497Z,0.52
2023-02-08T09:30:38.224Z,0.59
2023-02-08T09:33:05.969Z,0.62
2023-02-08T09:35:33.668Z,0.41
2023-02-08T09:38:04.517Z,0.64
2023-02-08T09:40:38.084Z,0.76
2023-02-08T09:43:10.146Z,0.59
2023-02-08T09:45:54.313Z,0.87
2023-02-08T09:48:27.776Z,0.94
2023-02-08T09:50:57.617Z,1.15
2023-02-08T09:53:32.599Z,1.22
2023-02-08T09:56:02.061Z,1.15
2023-02-08T09:58:34.165Z,1.15
2023-02-08T10:01:04.523Z,1.42
2023-02-08T10:03:37.032Z,1.51
2023-02-08T10:06:06.096Z,1.58
2023-02-08T10:08:36.200Z,1.72
2023-02-08T10:11:10.386Z,1.87
2023-02-08T10:13:46.211Z,1.99
2023-02-08T10:16:21.287Z,2.08
2023-02-08T10:18:56.052Z,2.24
2023-02-08T10:21:33.982Z,2.39
2023-02-08T10:24:24.241Z,2.51
2023-02-08T10:26:57.774Z,2.61
2023-02-08T10:29:39.592Z,2.66
2023-02-08T10:32:18.563Z,2.79
2023-02-08T10:34:47.999Z,2.92
2023-02-08T10:37:18.121Z,2.97
2023-02-08T10:39:47.728Z,3.13
2023-02-08T10:42:17.289Z,3.19
2023-02-08T10:44:56.884Z,3.34
2023-02-08T10:47:34.782Z,3.36
2023-02-08T10:50:04.787Z,3.52
2023-02-08T10:52:32.459Z,3.69
2023-02-08T10:55:02.302Z,3.69
2023-02-08T10:57:33.000Z,3.80
2023-02-08T11:00:03.412Z,3.83
2023-02-08T11:02:33.880Z,3.85
2023-02-08T11:05:03.596Z,3.94
2023-02-08T11:07:34.041Z,4.04
2023-02-08T11:10:22.344Z,3.98
2023-02-08T11:13:01.115Z,4.10
2023-02-08T11:15:40.974Z,4.07
2023-02-08T11:18:19.561Z,4.27
2023-02-08T11:20:50.018Z,4.23
2023-02-08T11:23:22.456Z,4.40
2023-02-08T11:25:52.549Z,4.36
2023-02-08T11:28:25.314Z,4.42
2023-02-08T11:30:57.915Z,4.50
2023-02-08T11:33:27.314Z,4.60
2023-02-08T11:36:03.255Z,4.53
2023-02-08T11:38:32.324Z,4.65
2023-02-08T11:41:03.385Z,4.60
2023-02-08T11:43:32.546Z,4.78
2023-02-08T11:46:00.891Z,4.90
2023-02-08T11:48:37.566Z,4.87
2023-02-08T11:51:05.591Z,4.87
2023-02-08T11:53:37.745Z,4.86
2023-02-08T11:56:15.783Z,5.06
2023-02-08T11:58:43.592Z,5.13
2023-02-08T12:01:20.094Z,5.02
2023-02-08T12:03:50.197Z,5.16
2023-02-08T12:06:34.212Z,5.29
2023-02-08T12:09:06.316Z,5.38
2023-02-08T12:11:41.391Z,5.28
2023-02-08T12:14:36.746Z,5.42
2023-02-08T12:17:16.769Z,5.43
2023-02-08T12:20:22.593Z,5.57
2023-02-08T12:22:55.753Z,5.63
2023-02-08T12:25:28.846Z,5.60
2023-02-08T12:28:02.790Z,5.70
2023-02-08T12:30:34.455Z,5.65
2023-02-08T12:33:17.254Z,5.70
2023-02-08T12:36:06.981Z,5.70
2023-02-08T12:39:19.638Z,5.88
2023-02-08T12:41:56.231Z,5.97
2023-02-08T12:44:33.519Z,6.00
2023-02-08T12:47:07.295Z,6.01
2023-02-08T12:49:49.954Z,5.93
2023-02-08T12:52:26.965Z,6.03
2023-02-08T12:54:58.715Z,6.02
2023-02-08T12:57:29.617Z,6.09
2023-02-08T13:00:02.807Z,6.19
2023-02-08T13:02:33.693Z,6.19
2023-02-08T13:05:04.939Z,6.28
2023-02-08T13:07:35.020Z,6.25
2023-02-08T13:10:06.476Z,6.28
2023-02-08T13:12:35.429Z,6.30
2023-02-08T13:15:11.874Z,6.25
2023-02-08T13:17:47.114Z,6.26
2023-02-08T13:20:26.987Z,6.19
2023-02-08T13:22:57.771Z,6.21
2023-02-08T13:25:30.449Z,6.25
2023-02-08T13:28:01.917Z,6.30
2023-02-08T13:30:32.834Z,6.34
2023-02-08T13:33:06.732Z,6.34
2023-02-08T13:35:34.909Z,6.33
2023-02-08T13:38:04.881Z,6.50
2023-02-08T13:40:34.199Z,6.27
2023-02-08T13:43:03.698Z,6.28
2023-02-08T13:45:36.702Z,6.21
2023-02-08T13:48:06.511Z,6.30
2023-02-08T13:50:44.088Z,6.32
2023-02-08T13:53:12.708Z,6.38
2023-02-08T13:56:08.308Z,6.44
2023-02-08T13:59:04.752Z,6.45
2023-02-08T14:01:36.071Z,6.45
2023-02-08T14:04:39.394Z,6.47
2023-02-08T14:07:15.261Z,6.45
2023-02-08T14:09:50.234Z,6.47
2023-02-08T14:12:24.824Z,6.42
2023-02-08T14:15:29.740Z,6.36
2023-02-08T14:17:59.757Z,6.43
2023-02-08T14:20:30.754Z,6.48
2023-02-08T14:22:59.875Z,6.48
2023-02-08T14:25:29.260Z,6.47
2023-02-08T14:27:59.086Z,6.38
2023-02-08T14:30:30.349Z,6.47
2023-02-08T14:33:16.370Z,6.51
2023-02-08T14:35:52.280Z,6.39
2023-02-08T14:38:38.234Z,6.43
2023-02-08T14:41:05.923Z,6.38
2023-02-08T14:43:35.677Z,6.31
2023-02-08T14:46:43.324Z,6.27
2023-02-08T14:49:14.233Z,6.19
2023-02-08T14:51:44.148Z,6.13
2023-02-08T14:54:22.126Z,6.08
2023-02-08T14:56:56.442Z,6.19
2023-02-08T14:59:26.780Z,6.10
2023-02-08T15:01:57.872Z,6.17
2023-02-08T15:04:27.492Z,6.10
2023-02-08T15:07:14.658Z,6.11
2023-02-08T15:09:43.509Z,6.12
2023-02-08T15:12:25.710Z,6.18
2023-02-08T15:14:55.182Z,6.10
2023-02-08T15:17:31.269Z,6.10
2023-02-08T15:20:00.934Z,6.02
2023-02-08T15:22:34.984Z,6.02
2023-02-08T15:25:05.708Z,5.94
2023-02-08T15:27:34.975Z,5.79
2023-02-08T15:30:02.720Z,5.85
2023-02-08T15:32:31.056Z,5.79
2023-02-08T15:35:01.687Z,5.72
2023-02-08T15:37:32.606Z,5.72
2023-02-08T15:40:01.272Z,5.73
2023-02-08T15:42:32.793Z,5.62
2023-02-08T15:45:02.526Z,5.53
2023-02-08T15:47:32.911Z,5.52
2023-02-08T15:50:02.638Z,5.46
2023-02-08T15:52:32.568Z,5.17
2023-02-08T15:55:00.378Z,5.12
2023-02-08T15:57:35.619Z,5.08
2023-02-08T16:00:05.435Z,4.92
2023-02-08T16:02:35.225Z,4.82
2023-02-08T16:05:13.025Z,4.73
2023-02-08T16:07:47.828Z,4.57
2023-02-08T16:10:25.101Z,4.54
2023-02-08T16:12:55.081Z,4.40
2023-02-08T16:15:40.346Z,4.43
2023-02-08T16:18:32.422Z,4.34
2023-02-08T16:21:03.022Z,4.07
2023-02-08T16:23:32.535Z,3.91
2023-02-08T16:26:12.019Z,3.71
2023-02-08T16:28:40.648Z,3.61
2023-02-08T16:31:08.887Z,3.53
2023-02-08T16:33:39.584Z,3.35
2023-02-08T16:36:08.688Z,3.25
2023-02-08T16:38:36.366Z,3.13
2023-02-08T16:41:13.049Z,3.01
2023-02-08T16:43:43.820Z,2.86
2023-02-08T16:46:21.174Z,2.75
2023-02-08T16:48:54.368Z,2.64
2023-02-08T16:51:25.824Z,2.50
2023-02-08T16:53:56.653Z,2.42
2023-02-08T16:56:25.105Z,2.35
2023-02-08T16:58:52.826Z,2.26
2023-02-08T17:01:21.230Z,2.15
2023-02-08T17:03:50.098Z,2.09
2023-02-08T17:06:25.556Z,2.02
2023-02-08T17:08:53.210Z,1.92
2023-02-08T17:11:20.945Z,1.88
2023-02-08T17:13:48.624Z,1.86
2023-02-08T17:16:19.429Z,1.80
2023-02-08T17:18:47.756Z,1.81
2023-02-08T17:21:15.743Z,1.73
2023-02-08T17:23:45.247Z,1.77
2023-02-08T17:26:16.331Z,1.72
2023-02-08T17:28:44.596Z,1.72
2023-02-08T17:31:13.177Z,1.72
2023-02-08T17:33:41.446Z,1.66
2023-02-08T17:36:10.030Z,1.54
2023-02-08T17:38:39.215Z,1.42
2023-02-08T17:41:08.803Z,1.30
2023-02-08T17:43:37.227Z,1.18
2023-02-08T17:46:10.206Z,1.17
2023-02-08T17:48:37.944Z,1.12
2023-02-08T17:51:09.640Z,1.01
2023-02-08T17:53:42.312Z,0.92
2023-02-08T17:56:13.887Z,0.87
2023-02-08T17:58:41.703Z,0.79
2023-02-08T18:01:17.235Z,0.72
2023-02-08T18:03:45.583Z,0.64
2023-02-08T18:06:13.962Z,0.70
2023-02-08T18:08:42.089Z,0.75
2023-02-08T18:11:15.881Z,0.78
2023-02-08T18:13:44.855Z,0.75
2023-02-08T18:16:15.216Z,0.79
2023-02-08T18:18:44.766Z,0.78
2023-02-08T18:21:15.729Z,0.73
2023-02-08T18:23:44.095Z,0.65
2023-02-08T18:26:15.518Z,0.56
2023-02-08T18:28:43.426Z,0.51
2023-02-08T18:31:14.461Z,0.48
2023-02-08T18:33:43.418Z,0.38
2023-02-08T18:36:12.443Z,0.28
2023-02-08T18:38:40.634Z,0.22
2023-02-08T18:41:09.541Z,0.20
2023-02-08T18:43:40.183Z,0.09
2023-02-08T18:46:10.151Z,0.04
2023-02-08T18:48:37.930Z,-0.03
2023-02-08T18:51:06.970Z,-0.11
2023-02-08T18:53:36.781Z,-0.16
2023-02-08T18:56:06.533Z,-0.22
2023-02-08T18:58:34.587Z,-0.22
2023-02-08T19:01:08.184Z,-0.14
2023-02-08T19:03:36.781Z,-0.14
2023-02-08T19:06:08.824Z,-0.13
2023-02-08T19:08:37.607Z,-0.09
2023-02-08T19:11:05.951Z,0.01
2023-02-08T19:13:35.473Z,0.05
2023-02-08T19:16:03.214Z,0.07
2023-02-08T19:18:32.203Z,0.09
2023-02-08T19:21:04.851Z,0.14
2023-02-08T19:23:32.591Z,0.15
2023-02-08T19:26:02.521Z,0.09
2023-02-08T19:28:32.587Z,0.13
2023-02-08T19:31:04.847Z,0.13
2023-02-08T19:33:33.904Z,0.14
2023-02-08T19:36:08.172Z,0.16
2023-02-08T19:38:36.241Z,0.17
2023-02-08T19:41:04.057Z,0.16
2023-02-08T19:43:31.975Z,0.13
2023-02-08T19:46:01.775Z,0.09
2023-02-08T19:48:29.501Z,0.04
2023-02-08T19:51:00.225Z,-0.02
2023-02-08T19:53:28.586Z,-0.08
2023-02-08T19:55:57.284Z,-0.13
2023-02-08T19:58:25.096Z,-0.14
2023-02-08T20:00:53.332Z,-0.13
2023-02-08T20:03:22.390Z,-0.16
2023-02-08T20:05:50.931Z,-0.17
2023-02-08T20:08:20.553Z,-0.18
2023-02-08T20:10:50.436Z,-0.21
2023-02-08T20:13:18.129Z,-0.21
2023-02-08T20:15:46.403Z,-0.22
2023-02-08T20:18:15.327Z,-0.25
2023-02-08T20:20:45.272Z,-0.25
2023-02-08T20:23:22.361Z,-0.24
2023-02-08T20:25:51.783Z,-0.35
2023-02-08T20:28:19.526Z,-0.43
2023-02-08T20:30:47.279Z,-0.48
2023-02-08T20:33:15.850Z,-0.51
2023-02-08T20:35:43.807Z,-0.55
2023-02-08T20:38:11.631Z,-0.56
2023-02-08T20:40:39.341Z,-0.57
2023-02-08T20:43:08.333Z,-0.50
2023-02-08T20:45:36.013Z,-0.41
2023-02-08T20:48:03.716Z,-0.32
2023-02-08T20:50:33.158Z,-0.23
2023-02-08T20:53:00.894Z,-0.18
2023-02-08T20:55:28.557Z,-0.23
2023-02-08T20:57:56.302Z,-0.21
2023-02-08T21:00:33.478Z,-0.21
2023-02-08T21:03:07.907Z,-0.28
2023-02-08T21:05:35.579Z,-0.35
2023-02-08T21:08:03.281Z,-0.40
2023-02-08T21:10:30.947Z,-0.35
2023-02-08T21:12:59.039Z,-0.35
2023-02-08T21:15:28.089Z,-0.29
2023-02-08T21:17:55.978Z,-0.23
2023-02-08T21:20:23.711Z,-0.19
2023-02-08T21:22:51.563Z,-0.17
2023-02-08T21:25:19.278Z,-0.16
2023-02-08T21:27:47.101Z,-0.12
2023-02-08T21:30:15.092Z,-0.16
2023-02-08T21:32:44.063Z,-0.19
2023-02-08T21:35:11.845Z,-0.19
2023-02-08T21:37:39.576Z,-0.16
2023-02-08T21:40:07.702Z,-0.16
2023-02-08T21:42:35.462Z,-0.17
2023-02-08T21:45:03.177Z,-0.21
2023-02-08T21:47:30.860Z,-0.19
2023-02-08T21:50:17.565Z,-0.21
2023-02-08T21:53:02.839Z,-0.21
2023-02-08T21:55:30.561Z,-0.11
2023-02-08T21:57:58.196Z,-0.05
2023-02-08T22:00:26.139Z,-0.06
2023-02-08T22:02:53.859Z,-0.04
2023-02-08T22:05:22.961Z,-0.02
2023-02-08T22:07:52.465Z,0.04
2023-02-08T22:10:21.944Z,0.02
2023-02-08T22:12:52.408Z,0.03
2023-02-08T22:15:22.153Z,0.02
2023-02-08T22:17:53.582Z,0.05
2023-02-08T22:20:21.385Z,0.09
2023-02-08T22:22:53.079Z,0.14
2023-02-08T22:25:22.492Z,0.13
2023-02-08T22:27:50.267Z,0.11
2023-02-08T22:30:19.584Z,0.11
2023-02-08T22:32:49.011Z,0.14
2023-02-08T22:35:18.233Z,0.19
2023-02-08T22:37:45.989Z,0.23
2023-02-08T22:40:15.692Z,0.25
2023-02-08T22:42:43.580Z,0.27
2023-02-08T22:45:11.687Z,0.28
2023-02-08T22:47:39.708Z,0.23
2023-02-08T22:50:08.012Z,0.20
2023-02-08T22:52:35.902Z,0.13
2023-02-08T22:55:04.224Z,0.08
2023-02-08T22:57:33.460Z,0.04
2023-02-08T23:00:01.164Z,0.09
2023-02-08T23:02:29.068Z,0.15
2023-02-08T23:04:56.866Z,0.16
2023-02-08T23:07:24.544Z,0.13
2023-02-08T23:09:52.223Z,0.11
2023-02-08T23:12:19.941Z,0.16
2023-02-08T23:14:49.714Z,0.17
2023-02-08T23:17:17.655Z,0.16
2023-02-08T23:19:45.314Z,0.20
2023-02-08T23:22:13.160Z,0.19
2023-02-08T23:24:40.855Z,0.12
2023-02-08T23:27:08.572Z,0.08
2023-02-08T23:29:36.462Z,0.02
2023-02-08T23:32:05.520Z,-0.01
2023-02-08T23:34:35.196Z,0.00
2023-02-08T23:37:03.006Z,-0.03
2023-02-08T23:39:33.821Z,-0.02
2023-02-08T23:42:01.764Z,-0.03
2023-02-08T23:44:29.452Z,-0.07
2023-02-08T23:46:57.136Z,-0.04
2023-02-08T23:49:26.212Z,-0.03
2023-02-08T23:51:54.275Z,-0.03
2023-02-08T23:54:21.970Z,-0.02
2023-02-08T23:56:51.945Z,-0.03
2023-02-08T23:59:19.702Z,0.06
